TimeCST,TemperatureF,Dew PointF,Humidity,Sea Level PressureIn,VisibilityMPH,Wind Direction,Wind SpeedMPH,Gust SpeedMPH,PrecipitationIn,Events,Conditions,WindDirDegrees,DateUTC
12:53 AM,39.9,30.9,70,30.29,10.0,East,5.8,-,N/A,,Overcast,100,2013-01-27 06:53:00
1:53 AM,39.9,30.9,70,30.28,10.0,East,6.9,-,N/A,,Overcast,100,2013-01-27 07:53:00
2:53 AM,41.0,32.0,70,30.28,10.0,East,4.6,-,N/A,,Overcast,100,2013-01-27 08:53:00
3:53 AM,41.0,32.0,70,30.27,10.0,East,6.9,-,N/A,,Overcast,100,2013-01-27 09:53:00
4:53 AM,42.1,32.0,67,30.27,10.0,ESE,4.6,-,N/A,,Overcast,120,2013-01-27 10:53:00
5:40 AM,42.8,33.8,70,30.27,10.0,ESE,5.8,-,N/A,,Overcast,110,2013-01-27 11:40:00
5:53 AM,42.1,33.1,70,30.27,10.0,ESE,5.8,-,N/A,,Overcast,110,2013-01-27 11:53:00
6:53 AM,43.0,33.1,68,30.28,10.0,ESE,3.5,-,N/A,,Overcast,120,2013-01-27 12:53:00
7:53 AM,44.1,34.0,68,30.29,10.0,Calm,Calm,-,N/A,,Overcast,0,2013-01-27 13:53:00
8:53 AM,44.1,36.0,73,30.30,10.0,Calm,Calm,-,N/A,,Overcast,0,2013-01-27 14:53:00
9:53 AM,46.0,37.9,73,30.29,10.0,SSE,8.1,-,0.00,,Overcast,150,2013-01-27 15:53:00
10:53 AM,48.0,39.0,71,30.28,10.0,SSE,6.9,-,N/A,,Overcast,160,2013-01-27 16:53:00
11:53 AM,52.0,39.0,61,30.25,10.0,SSE,8.1,-,N/A,,Overcast,160,2013-01-27 17:53:00
12:01 PM,51.8,39.2,62,30.25,10.0,Variable,5.8,-,N/A,,Overcast,0,2013-01-27 18:01:00
12:53 PM,55.0,41.0,59,30.22,10.0,SSE,8.1,-,N/A,,Overcast,160,2013-01-27 18:53:00
1:53 PM,57.0,43.0,59,30.19,10.0,South,9.2,-,N/A,,Scattered Clouds,170,2013-01-27 19:53:00
2:53 PM,59.0,44.1,58,30.19,10.0,South,10.4,-,N/A,,Scattered Clouds,170,2013-01-27 20:53:00
3:53 PM,57.9,44.1,60,30.17,10.0,SSE,6.9,-,N/A,,Partly Cloudy,150,2013-01-27 21:53:00
4:53 PM,55.9,43.0,62,30.17,10.0,SSE,10.4,-,N/A,,Scattered Clouds,150,2013-01-27 22:53:00
5:53 PM,55.0,43.0,64,30.18,10.0,SSE,6.9,-,N/A,,Partly Cloudy,160,2013-01-27 23:53:00
6:53 PM,54.0,43.0,66,30.19,10.0,SSE,4.6,-,N/A,,Partly Cloudy,150,2013-01-28 00:53:00
7:53 PM,51.1,42.1,71,30.19,10.0,ESE,3.5,-,N/A,,Clear,120,2013-01-28 01:53:00
8:53 PM,52.0,43.0,71,30.18,10.0,SSE,5.8,-,N/A,,Clear,160,2013-01-28 02:53:00
9:53 PM,55.0,44.1,67,30.15,10.0,South,8.1,23.0,N/A,,Clear,170,2013-01-28 03:53:00
10:53 PM,55.9,45.0,67,30.16,10.0,South,10.4,19.6,N/A,,Clear,180,2013-01-28 04:53:00
11:53 PM,55.9,44.1,64,30.15,10.0,South,9.2,-,N/A,,Clear,170,2013-01-28 05:53:00